sensor_id;sensor_type;location;lat;lon;timestamp;temperature;humidity
29539;DHT22;16482;51.046;4.498;2023-04-01T00:00:27;23.90;39.70
29539;DHT22;16482;51.046;4.498;2023-04-01T00:03:01;23.90;39.60
29539;DHT22;16482;51.046;4.498;2023-04-01T00:05:27;23.90;39.60
29539;DHT22;16482;51.046;4.498;2023-04-01T00:07:55;24.00;39.70
29539;DHT22;16482;51.046;4.498;2023-04-01T00:10:29;24.00;39.70
29539;DHT22;16482;51.046;4.498;2023-04-01T00:12:58;24.00;39.60
29539;DHT22;16482;51.046;4.498;2023-04-01T00:15:26;23.90;39.60
29539;DHT22;16482;51.046;4.498;2023-04-01T00:17:59;24.00;39.60
29539;DHT22;16482;51.046;4.498;2023-04-01T00:20:29;24.00;39.70
29539;DHT22;16482;51.046;4.498;2023-04-01T00:22:57;23.90;39.60
29539;DHT22;16482;51.046;4.498;2023-04-01T00:25:26;24.00;39.70
29539;DHT22;16482;51.046;4.498;2023-04-01T00:27:54;24.00;39.60
29539;DHT22;16482;51.046;4.498;2023-04-01T00:30:32;24.00;39.70
29539;DHT22;16482;51.046;4.498;2023-04-01T00:32:58;24.00;39.60
29539;DHT22;16482;51.046;4.498;2023-04-01T00:35:27;23.90;39.60
29539;DHT22;16482;51.046;4.498;2023-04-01T00:37:58;24.00;39.60
29539;DHT22;16482;51.046;4.498;2023-04-01T00:42:57;24.00;39.80
29539;DHT22;16482;51.046;4.498;2023-04-01T00:48:02;24.00;39.60
29539;DHT22;16482;51.046;4.498;2023-04-01T00:50:31;23.90;39.60
29539;DHT22;16482;51.046;4.498;2023-04-01T00:52:59;23.90;39.60
29539;DHT22;16482;51.046;4.498;2023-04-01T00:55:27;23.90;39.60
29539;DHT22;16482;51.046;4.498;2023-04-01T00:57:55;23.90;39.60
29539;DHT22;16482;51.046;4.498;2023-04-01T01:00:25;23.90;39.60
29539;DHT22;16482;51.046;4.498;2023-04-01T01:02:57;23.90;39.60
29539;DHT22;16482;51.046;4.498;2023-04-01T01:05:47;24.00;39.60
29539;DHT22;16482;51.046;4.498;2023-04-01T01:10:56;23.90;39.50
29539;DHT22;16482;51.046;4.498;2023-04-01T01:13:34;23.90;39.50
29539;DHT22;16482;51.046;4.498;2023-04-01T01:16:18;23.90;39.50
29539;DHT22;16482;51.046;4.498;2023-04-01T01:19:01;23.90;39.50
29539;DHT22;16482;51.046;4.498;2023-04-01T01:27:09;23.90;39.50
29539;DHT22;16482;51.046;4.498;2023-04-01T01:37:43;23.90;39.60
29539;DHT22;16482;51.046;4.498;2023-04-01T01:40:12;23.80;39.50
29539;DHT22;16482;51.046;4.498;2023-04-01T01:42:45;23.90;39.60
29539;DHT22;16482;51.046;4.498;2023-04-01T01:45:13;23.90;39.50
29539;DHT22;16482;51.046;4.498;2023-04-01T01:47:43;23.90;39.60
29539;DHT22;16482;51.046;4.498;2023-04-01T01:50:12;23.90;39.50
29539;DHT22;16482;51.046;4.498;2023-04-01T01:52:40;23.90;39.50
29539;DHT22;16482;51.046;4.498;2023-04-01T01:55:33;23.80;39.50
29539;DHT22;16482;51.046;4.498;2023-04-01T01:58:09;23.90;39.50
29539;DHT22;16482;51.046;4.498;2023-04-01T02:00:39;23.80;39.50
29539;DHT22;16482;51.046;4.498;2023-04-01T02:03:06;23.90;39.60
29539;DHT22;16482;51.046;4.498;2023-04-01T02:05:32;23.80;39.50
29539;DHT22;16482;51.046;4.498;2023-04-01T02:08:12;23.80;39.60
29539;DHT22;16482;51.046;4.498;2023-04-01T02:10:42;23.80;39.50
29539;DHT22;16482;51.046;4.498;2023-04-01T02:14:19;23.80;39.50
29539;DHT22;16482;51.046;4.498;2023-04-01T02:19:18;23.80;39.50
29539;DHT22;16482;51.046;4.498;2023-04-01T02:21:55;23.80;39.60
29539;DHT22;16482;51.046;4.498;2023-04-01T02:24:24;23.80;39.60
29539;DHT22;16482;51.046;4.498;2023-04-01T02:26:51;23.80;39.50
29539;DHT22;16482;51.046;4.498;2023-04-01T02:29:22;23.80;39.50
29539;DHT22;16482;51.046;4.498;2023-04-01T02:31:52;23.80;39.50
29539;DHT22;16482;51.046;4.498;2023-04-01T02:34:20;23.80;39.60
29539;DHT22;16482;51.046;4.498;2023-04-01T02:36:48;23.80;39.50
29539;DHT22;16482;51.046;4.498;2023-04-01T02:39:15;23.80;39.50
29539;DHT22;16482;51.046;4.498;2023-04-01T02:41:45;23.80;39.50
29539;DHT22;16482;51.046;4.498;2023-04-01T02:44:12;23.80;39.50
29539;DHT22;16482;51.046;4.498;2023-04-01T02:46:38;23.80;39.40
29539;DHT22;16482;51.046;4.498;2023-04-01T02:49:05;23.80;39.50
29539;DHT22;16482;51.046;4.498;2023-04-01T02:51:31;23.80;39.50
29539;DHT22;16482;51.046;4.498;2023-04-01T02:53:57;23.80;39.50
29539;DHT22;16482;51.046;4.498;2023-04-01T02:56:23;23.80;39.60
29539;DHT22;16482;51.046;4.498;2023-04-01T02:58:53;23.80;39.60
29539;DHT22;16482;51.046;4.498;2023-04-01T03:01:20;23.80;39.50
29539;DHT22;16482;51.046;4.498;2023-04-01T03:03:48;23.80;39.50
29539;DHT22;16482;51.046;4.498;2023-04-01T03:06:16;23.70;39.60
29539;DHT22;16482;51.046;4.498;2023-04-01T03:08:50;23.80;39.60
29539;DHT22;16482;51.046;4.498;2023-04-01T03:11:16;23.70;39.50
29539;DHT22;16482;51.046;4.498;2023-04-01T03:14:00;23.70;39.60
29539;DHT22;16482;51.046;4.498;2023-04-01T03:16:26;23.80;39.50
29539;DHT22;16482;51.046;4.498;2023-04-01T03:18:55;23.70;39.60
29539;DHT22;16482;51.046;4.498;2023-04-01T03:21:24;23.70;39.60
29539;DHT22;16482;51.046;4.498;2023-04-01T03:23:51;23.80;39.50
29539;DHT22;16482;51.046;4.498;2023-04-01T03:26:19;23.70;39.60
29539;DHT22;16482;51.046;4.498;2023-04-01T03:28:47;23.70;39.60
29539;DHT22;16482;51.046;4.498;2023-04-01T03:31:19;23.70;39.60
29539;DHT22;16482;51.046;4.498;2023-04-01T03:33:45;23.70;39.50
29539;DHT22;16482;51.046;4.498;2023-04-01T03:36:20;23.70;39.60
29539;DHT22;16482;51.046;4.498;2023-04-01T03:38:46;23.70;39.50
29539;DHT22;16482;51.046;4.498;2023-04-01T03:41:15;23.70;39.50
29539;DHT22;16482;51.046;4.498;2023-04-01T03:43:47;23.60;39.60
29539;DHT22;16482;51.046;4.498;2023-04-01T03:46:20;23.60;39.80
29539;DHT22;16482;51.046;4.498;2023-04-01T03:48:49;23.60;39.70
29539;DHT22;16482;51.046;4.498;2023-04-01T03:51:15;23.60;39.70
29539;DHT22;16482;51.046;4.498;2023-04-01T03:53:58;23.70;39.70
29539;DHT22;16482;51.046;4.498;2023-04-01T03:56:24;23.70;39.60
29539;DHT22;16482;51.046;4.498;2023-04-01T03:58:53;23.70;39.70
29539;DHT22;16482;51.046;4.498;2023-04-01T04:01:21;23.70;39.70
29539;DHT22;16482;51.046;4.498;2023-04-01T04:03:50;23.70;39.60
29539;DHT22;16482;51.046;4.498;2023-04-01T04:06:17;23.70;39.60
29539;DHT22;16482;51.046;4.498;2023-04-01T04:08:46;23.70;39.60
29539;DHT22;16482;51.046;4.498;2023-04-01T04:11:21;23.70;39.70
29539;DHT22;16482;51.046;4.498;2023-04-01T04:13:47;23.70;39.60
29539;DHT22;16482;51.046;4.498;2023-04-01T04:16:16;23.60;39.60
29539;DHT22;16482;51.046;4.498;2023-04-01T04:18:51;23.60;39.60
29539;DHT22;16482;51.046;4.498;2023-04-01T04:21:17;23.70;39.60
29539;DHT22;16482;51.046;4.498;2023-04-01T04:23:52;23.70;39.60
29539;DHT22;16482;51.046;4.498;2023-04-01T04:26:18;23.60;39.60
29539;DHT22;16482;51.046;4.498;2023-04-01T04:28:47;23.60;39.60
29539;DHT22;16482;51.046;4.498;2023-04-01T04:31:24;23.70;39.60
29539;DHT22;16482;51.046;4.498;2023-04-01T04:33:50;23.70;39.50
29539;DHT22;16482;51.046;4.498;2023-04-01T04:36:17;23.60;39.60
29539;DHT22;16482;51.046;4.498;2023-04-01T04:38:49;23.60;39.50
29539;DHT22;16482;51.046;4.498;2023-04-01T04:41:18;23.60;39.50
29539;DHT22;16482;51.046;4.498;2023-04-01T04:43:53;23.70;39.60
29539;DHT22;16482;51.046;4.498;2023-04-01T04:46:19;23.60;39.50
29539;DHT22;16482;51.046;4.498;2023-04-01T04:48:53;23.60;39.60
29539;DHT22;16482;51.046;4.498;2023-04-01T04:51:19;23.60;39.60
29539;DHT22;16482;51.046;4.498;2023-04-01T04:53:48;23.60;39.60
29539;DHT22;16482;51.046;4.498;2023-04-01T04:56:19;23.70;39.60
29539;DHT22;16482;51.046;4.498;2023-04-01T04:58:46;23.60;39.60
29539;DHT22;16482;51.046;4.498;2023-04-01T05:01:21;23.60;39.60
29539;DHT22;16482;51.046;4.498;2023-04-01T05:03:47;23.60;39.60
29539;DHT22;16482;51.046;4.498;2023-04-01T05:06:19;23.60;39.60
29539;DHT22;16482;51.046;4.498;2023-04-01T05:08:48;23.60;39.60
29539;DHT22;16482;51.046;4.498;2023-04-01T05:11:23;23.60;39.60
29539;DHT22;16482;51.046;4.498;2023-04-01T05:13:51;23.60;39.60
29539;DHT22;16482;51.046;4.498;2023-04-01T05:16:19;23.60;39.70
29539;DHT22;16482;51.046;4.498;2023-04-01T05:18:46;23.60;39.60
29539;DHT22;16482;51.046;4.498;2023-04-01T05:21:21;23.60;39.60
29539;DHT22;16482;51.046;4.498;2023-04-01T05:23:47;23.70;39.60
29539;DHT22;16482;51.046;4.498;2023-04-01T05:26:16;23.70;39.60
29539;DHT22;16482;51.046;4.498;2023-04-01T05:28:51;23.70;39.60
29539;DHT22;16482;51.046;4.498;2023-04-01T05:31:16;23.80;39.50
29539;DHT22;16482;51.046;4.498;2023-04-01T05:33:51;23.80;39.40
29539;DHT22;16482;51.046;4.498;2023-04-01T05:36:18;23.90;39.30
29539;DHT22;16482;51.046;4.498;2023-04-01T05:38:47;23.90;39.30
29539;DHT22;16482;51.046;4.498;2023-04-01T05:41:16;24.00;39.20
29539;DHT22;16482;51.046;4.498;2023-04-01T05:43:51;24.00;39.10
29539;DHT22;16482;51.046;4.498;2023-04-01T05:46:17;24.10;39.10
29539;DHT22;16482;51.046;4.498;2023-04-01T05:48:48;24.10;39.00
29539;DHT22;16482;51.046;4.498;2023-04-01T05:51:17;24.20;39.00
29539;DHT22;16482;51.046;4.498;2023-04-01T05:53:48;24.20;38.90
29539;DHT22;16482;51.046;4.498;2023-04-01T05:56:17;24.20;38.80
29539;DHT22;16482;51.046;4.498;2023-04-01T05:58:50;24.20;38.80
29539;DHT22;16482;51.046;4.498;2023-04-01T06:01:17;24.30;38.80
29539;DHT22;16482;51.046;4.498;2023-04-01T06:03:53;24.30;38.80
29539;DHT22;16482;51.046;4.498;2023-04-01T06:06:29;24.30;38.70
29539;DHT22;16482;51.046;4.498;2023-04-01T06:08:57;24.30;38.70
29539;DHT22;16482;51.046;4.498;2023-04-01T06:29:09;24.30;39.00
29539;DHT22;16482;51.046;4.498;2023-04-01T06:31:44;24.40;38.90
29539;DHT22;16482;51.046;4.498;2023-04-01T06:34:34;24.30;39.00
29539;DHT22;16482;51.046;4.498;2023-04-01T06:37:36;24.40;38.90
29539;DHT22;16482;51.046;4.498;2023-04-01T06:43:27;24.40;39.00
29539;DHT22;16482;51.046;4.498;2023-04-01T06:46:08;24.40;38.90
29539;DHT22;16482;51.046;4.498;2023-04-01T06:54:50;24.40;39.10
29539;DHT22;16482;51.046;4.498;2023-04-01T06:57:31;24.40;39.00
29539;DHT22;16482;51.046;4.498;2023-04-01T07:00:00;24.40;39.10
29539;DHT22;16482;51.046;4.498;2023-04-01T07:02:37;24.40;39.10
29539;DHT22;16482;51.046;4.498;2023-04-01T07:05:06;24.40;38.80
29539;DHT22;16482;51.046;4.498;2023-04-01T07:07:41;24.50;39.00
29539;DHT22;16482;51.046;4.498;2023-04-01T07:10:33;24.60;39.00
29539;DHT22;16482;51.046;4.498;2023-04-01T07:13:06;24.50;39.10
29539;DHT22;16482;51.046;4.498;2023-04-01T07:15:41;24.50;39.30
29539;DHT22;16482;51.046;4.498;2023-04-01T07:18:23;24.60;39.30
29539;DHT22;16482;51.046;4.498;2023-04-01T07:20:52;24.60;39.20
29539;DHT22;16482;51.046;4.498;2023-04-01T07:23:31;24.60;39.30
29539;DHT22;16482;51.046;4.498;2023-04-01T07:26:19;24.60;39.20
29539;DHT22;16482;51.046;4.498;2023-04-01T07:28:46;24.60;39.10
29539;DHT22;16482;51.046;4.498;2023-04-01T07:31:24;24.60;39.20
29539;DHT22;16482;51.046;4.498;2023-04-01T07:34:18;24.60;39.10
29539;DHT22;16482;51.046;4.498;2023-04-01T07:37:30;24.60;39.10
29539;DHT22;16482;51.046;4.498;2023-04-01T07:53:56;24.60;39.00
29539;DHT22;16482;51.046;4.498;2023-04-01T08:07:21;24.60;38.90
29539;DHT22;16482;51.046;4.498;2023-04-01T08:10:02;24.60;39.00
29539;DHT22;16482;51.046;4.498;2023-04-01T08:12:47;24.60;38.90
29539;DHT22;16482;51.046;4.498;2023-04-01T08:15:32;24.60;38.90
29539;DHT22;16482;51.046;4.498;2023-04-01T08:23:38;24.60;38.90
29539;DHT22;16482;51.046;4.498;2023-04-01T08:26:44;24.60;38.90
29539;DHT22;16482;51.046;4.498;2023-04-01T08:29:15;24.60;39.20
29539;DHT22;16482;51.046;4.498;2023-04-01T08:32:13;24.60;38.90
29539;DHT22;16482;51.046;4.498;2023-04-01T08:34:45;24.50;38.80
29539;DHT22;16482;51.046;4.498;2023-04-01T08:37:17;24.60;39.50
29539;DHT22;16482;51.046;4.498;2023-04-01T08:39:55;24.60;38.90
29539;DHT22;16482;51.046;4.498;2023-04-01T08:57:04;24.60;38.90
29539;DHT22;16482;51.046;4.498;2023-04-01T09:08:29;24.60;38.70
29539;DHT22;16482;51.046;4.498;2023-04-01T09:11:08;24.60;38.70
29539;DHT22;16482;51.046;4.498;2023-04-01T09:20:08;24.60;38.70
29539;DHT22;16482;51.046;4.498;2023-04-01T09:37:21;24.60;38.80
29539;DHT22;16482;51.046;4.498;2023-04-01T09:45:47;24.60;38.90
29539;DHT22;16482;51.046;4.498;2023-04-01T09:51:40;24.60;38.70
29539;DHT22;16482;51.046;4.498;2023-04-01T10:06:14;24.60;38.70
29539;DHT22;16482;51.046;4.498;2023-04-01T10:23:14;24.60;38.80
29539;DHT22;16482;51.046;4.498;2023-04-01T10:26:04;24.50;38.90
29539;DHT22;16482;51.046;4.498;2023-04-01T10:52:29;24.50;38.90
29539;DHT22;16482;51.046;4.498;2023-04-01T10:57:48;24.50;38.90
29539;DHT22;16482;51.046;4.498;2023-04-01T11:11:53;24.60;38.90
29539;DHT22;16482;51.046;4.498;2023-04-01T11:23:31;24.60;38.90
29539;DHT22;16482;51.046;4.498;2023-04-01T11:29:27;24.50;38.90
29539;DHT22;16482;51.046;4.498;2023-04-01T11:32:50;24.50;38.90
29539;DHT22;16482;51.046;4.498;2023-04-01T11:44:20;24.50;38.90
29539;DHT22;16482;51.046;4.498;2023-04-01T12:09:52;24.50;38.90
29539;DHT22;16482;51.046;4.498;2023-04-01T12:12:51;24.50;39.00
29539;DHT22;16482;51.046;4.498;2023-04-01T12:18:30;24.50;38.90
29539;DHT22;16482;51.046;4.498;2023-04-01T12:21:22;24.40;38.90
29539;DHT22;16482;51.046;4.498;2023-04-01T12:24:25;24.40;38.80
29539;DHT22;16482;51.046;4.498;2023-04-01T12:27:12;24.50;38.90
29539;DHT22;16482;51.046;4.498;2023-04-01T12:33:24;24.40;38.80
29539;DHT22;16482;51.046;4.498;2023-04-01T12:35:33;24.40;38.80
29539;DHT22;16482;51.046;4.498;2023-04-01T12:38:17;24.40;38.80
29539;DHT22;16482;51.046;4.498;2023-04-01T12:52:10;24.50;38.90
29539;DHT22;16482;51.046;4.498;2023-04-01T12:55:18;24.50;38.90
29539;DHT22;16482;51.046;4.498;2023-04-01T12:57:51;24.50;38.80
29539;DHT22;16482;51.046;4.498;2023-04-01T13:06:29;24.50;38.70
29539;DHT22;16482;51.046;4.498;2023-04-01T13:09:02;24.50;38.80
29539;DHT22;16482;51.046;4.498;2023-04-01T13:21:21;24.50;38.80
29539;DHT22;16482;51.046;4.498;2023-04-01T13:38:50;24.50;38.80
29539;DHT22;16482;51.046;4.498;2023-04-01T13:55:11;24.60;38.90
29539;DHT22;16482;51.046;4.498;2023-04-01T14:06:28;24.50;38.90
29539;DHT22;16482;51.046;4.498;2023-04-01T14:11:45;24.50;38.90
29539;DHT22;16482;51.046;4.498;2023-04-01T14:22:38;24.50;38.90
29539;DHT22;16482;51.046;4.498;2023-04-01T14:28:11;24.50;38.90
29539;DHT22;16482;51.046;4.498;2023-04-01T14:30:54;24.50;38.90
29539;DHT22;16482;51.046;4.498;2023-04-01T14:48:17;24.50;38.90
29539;DHT22;16482;51.046;4.498;2023-04-01T14:50:53;24.50;39.50
29539;DHT22;16482;51.046;4.498;2023-04-01T14:55:50;24.40;38.90
29539;DHT22;16482;51.046;4.498;2023-04-01T14:58:18;24.50;38.90
29539;DHT22;16482;51.046;4.498;2023-04-01T15:03:19;24.50;38.90
29539;DHT22;16482;51.046;4.498;2023-04-01T15:08:33;24.50;38.90
29539;DHT22;16482;51.046;4.498;2023-04-01T15:14:05;24.50;38.80
29539;DHT22;16482;51.046;4.498;2023-04-01T15:16:59;24.50;38.90
29539;DHT22;16482;51.046;4.498;2023-04-01T15:30:54;24.50;38.80
29539;DHT22;16482;51.046;4.498;2023-04-01T15:39:11;24.40;38.80
29539;DHT22;16482;51.046;4.498;2023-04-01T15:44:46;24.50;38.90
29539;DHT22;16482;51.046;4.498;2023-04-01T15:50:02;24.40;38.90
29539;DHT22;16482;51.046;4.498;2023-04-01T15:53:11;24.40;38.90
29539;DHT22;16482;51.046;4.498;2023-04-01T15:58:34;24.40;38.80
29539;DHT22;16482;51.046;4.498;2023-04-01T16:01:32;24.40;38.80
29539;DHT22;16482;51.046;4.498;2023-04-01T16:07:08;24.40;38.80
29539;DHT22;16482;51.046;4.498;2023-04-01T16:10:13;24.40;38.80
29539;DHT22;16482;51.046;4.498;2023-04-01T16:15:32;24.40;38.80
29539;DHT22;16482;51.046;4.498;2023-04-01T16:21:24;24.40;38.80
29539;DHT22;16482;51.046;4.498;2023-04-01T16:23:55;24.40;38.80
29539;DHT22;16482;51.046;4.498;2023-04-01T16:29:03;24.40;39.00
29539;DHT22;16482;51.046;4.498;2023-04-01T16:34:16;24.40;38.80
29539;DHT22;16482;51.046;4.498;2023-04-01T16:36:47;24.40;38.80
29539;DHT22;16482;51.046;4.498;2023-04-01T16:39:46;24.40;38.80
29539;DHT22;16482;51.046;4.498;2023-04-01T16:45:16;24.40;39.50
29539;DHT22;16482;51.046;4.498;2023-04-01T16:48:12;24.40;39.00
29539;DHT22;16482;51.046;4.498;2023-04-01T16:50:58;24.40;38.80
29539;DHT22;16482;51.046;4.498;2023-04-01T16:56:02;24.40;39.00
29539;DHT22;16482;51.046;4.498;2023-04-01T16:58:35;24.40;39.10
29539;DHT22;16482;51.046;4.498;2023-04-01T17:01:13;24.40;39.10
29539;DHT22;16482;51.046;4.498;2023-04-01T17:04:07;24.30;39.10
29539;DHT22;16482;51.046;4.498;2023-04-01T17:06:45;24.30;39.10
29539;DHT22;16482;51.046;4.498;2023-04-01T17:09:41;24.40;39.10
29539;DHT22;16482;51.046;4.498;2023-04-01T17:12:28;24.40;39.00
29539;DHT22;16482;51.046;4.498;2023-04-01T17:21:10;24.40;39.00
29539;DHT22;16482;51.046;4.498;2023-04-01T17:23:57;24.40;38.90
29539;DHT22;16482;51.046;4.498;2023-04-01T17:26:32;24.40;39.00
29539;DHT22;16482;51.046;4.498;2023-04-01T17:29:15;24.40;38.90
29539;DHT22;16482;51.046;4.498;2023-04-01T17:37:19;24.40;38.80
29539;DHT22;16482;51.046;4.498;2023-04-01T17:42:32;24.40;38.90
29539;DHT22;16482;51.046;4.498;2023-04-01T17:50:50;24.40;38.80
29539;DHT22;16482;51.046;4.498;2023-04-01T17:58:59;24.40;39.00
29539;DHT22;16482;51.046;4.498;2023-04-01T18:04:11;24.40;39.00
29539;DHT22;16482;51.046;4.498;2023-04-01T18:09:48;24.40;39.00
29539;DHT22;16482;51.046;4.498;2023-04-01T18:12:26;24.40;39.00
29539;DHT22;16482;51.046;4.498;2023-04-01T18:23:21;24.30;39.10
29539;DHT22;16482;51.046;4.498;2023-04-01T18:25:52;24.40;39.10
29539;DHT22;16482;51.046;4.498;2023-04-01T18:28:39;24.40;39.10
29539;DHT22;16482;51.046;4.498;2023-04-01T18:31:24;24.30;39.00
29539;DHT22;16482;51.046;4.498;2023-04-01T18:33:56;24.40;39.10
29539;DHT22;16482;51.046;4.498;2023-04-01T18:39:40;24.30;39.20
29539;DHT22;16482;51.046;4.498;2023-04-01T18:42:26;24.30;39.10
29539;DHT22;16482;51.046;4.498;2023-04-01T18:45:14;24.30;39.10
29539;DHT22;16482;51.046;4.498;2023-04-01T18:48:30;24.30;39.20
29539;DHT22;16482;51.046;4.498;2023-04-01T18:51:03;24.30;39.20
29539;DHT22;16482;51.046;4.498;2023-04-01T18:53:43;24.30;39.20
29539;DHT22;16482;51.046;4.498;2023-04-01T18:56:29;24.30;39.20
29539;DHT22;16482;51.046;4.498;2023-04-01T19:01:39;24.30;39.20
29539;DHT22;16482;51.046;4.498;2023-04-01T19:05:12;24.30;39.20
29539;DHT22;16482;51.046;4.498;2023-04-01T19:21:01;24.30;39.20
29539;DHT22;16482;51.046;4.498;2023-04-01T19:23:58;24.30;39.10
29539;DHT22;16482;51.046;4.498;2023-04-01T19:35:42;24.30;39.20
29539;DHT22;16482;51.046;4.498;2023-04-01T19:40:57;24.30;39.20
29539;DHT22;16482;51.046;4.498;2023-04-01T19:43:59;24.30;39.20
29539;DHT22;16482;51.046;4.498;2023-04-01T19:46:58;24.30;39.20
29539;DHT22;16482;51.046;4.498;2023-04-01T19:55:06;24.20;39.30
29539;DHT22;16482;51.046;4.498;2023-04-01T19:58:00;24.20;39.20
29539;DHT22;16482;51.046;4.498;2023-04-01T20:00:36;24.20;39.30
29539;DHT22;16482;51.046;4.498;2023-04-01T20:03:04;24.20;39.20
29539;DHT22;16482;51.046;4.498;2023-04-01T20:06:00;24.20;39.30
29539;DHT22;16482;51.046;4.498;2023-04-01T20:08:38;24.30;39.20
29539;DHT22;16482;51.046;4.498;2023-04-01T20:14:21;24.20;39.30
29539;DHT22;16482;51.046;4.498;2023-04-01T20:19:51;24.20;39.30
29539;DHT22;16482;51.046;4.498;2023-04-01T20:28:09;24.20;39.90
29539;DHT22;16482;51.046;4.498;2023-04-01T20:36:16;24.30;39.30
29539;DHT22;16482;51.046;4.498;2023-04-01T20:41:40;24.20;39.30
29539;DHT22;16482;51.046;4.498;2023-04-01T20:44:11;24.20;39.30
29539;DHT22;16482;51.046;4.498;2023-04-01T20:50:12;24.30;39.30
29539;DHT22;16482;51.046;4.498;2023-04-01T20:53:02;24.30;39.30
29539;DHT22;16482;51.046;4.498;2023-04-01T21:01:58;24.20;39.40
29539;DHT22;16482;51.046;4.498;2023-04-01T21:07:34;24.20;39.50
29539;DHT22;16482;51.046;4.498;2023-04-01T21:10:37;24.20;39.50
29539;DHT22;16482;51.046;4.498;2023-04-01T21:27:25;24.20;39.50
29539;DHT22;16482;51.046;4.498;2023-04-01T21:29:56;24.20;39.60
29539;DHT22;16482;51.046;4.498;2023-04-01T21:32:41;24.10;39.60
29539;DHT22;16482;51.046;4.498;2023-04-01T21:35:43;24.20;39.50
29539;DHT22;16482;51.046;4.498;2023-04-01T21:38:35;24.20;39.50
29539;DHT22;16482;51.046;4.498;2023-04-01T21:44:11;24.20;39.60
29539;DHT22;16482;51.046;4.498;2023-04-01T21:46:57;24.20;39.50
29539;DHT22;16482;51.046;4.498;2023-04-01T21:52:38;24.10;39.60
29539;DHT22;16482;51.046;4.498;2023-04-01T22:12:35;24.00;39.60
29539;DHT22;16482;51.046;4.498;2023-04-01T22:20:40;24.00;39.70
29539;DHT22;16482;51.046;4.498;2023-04-01T22:25:45;24.00;39.60
29539;DHT22;16482;51.046;4.498;2023-04-01T22:28:27;24.00;39.50
29539;DHT22;16482;51.046;4.498;2023-04-01T22:31:01;24.00;39.40
29539;DHT22;16482;51.046;4.498;2023-04-01T22:33:57;24.00;39.40
29539;DHT22;16482;51.046;4.498;2023-04-01T22:39:28;24.00;39.40
29539;DHT22;16482;51.046;4.498;2023-04-01T22:45:18;24.00;39.30
29539;DHT22;16482;51.046;4.498;2023-04-01T22:50:52;23.90;39.40
29539;DHT22;16482;51.046;4.498;2023-04-01T22:53:36;24.00;39.30
29539;DHT22;16482;51.046;4.498;2023-04-01T22:56:11;24.00;39.30
29539;DHT22;16482;51.046;4.498;2023-04-01T22:58:54;24.00;39.30
29539;DHT22;16482;51.046;4.498;2023-04-01T23:01:29;24.00;39.30
29539;DHT22;16482;51.046;4.498;2023-04-01T23:03:58;24.00;39.20
29539;DHT22;16482;51.046;4.498;2023-04-01T23:06:46;23.90;39.30
29539;DHT22;16482;51.046;4.498;2023-04-01T23:09:26;24.00;39.20
29539;DHT22;16482;51.046;4.498;2023-04-01T23:11:58;24.00;39.20
29539;DHT22;16482;51.046;4.498;2023-04-01T23:14:51;24.00;39.20
29539;DHT22;16482;51.046;4.498;2023-04-01T23:17:41;24.00;39.10
29539;DHT22;16482;51.046;4.498;2023-04-01T23:20:39;23.90;39.10
29539;DHT22;16482;51.046;4.498;2023-04-01T23:23:19;24.00;39.10
29539;DHT22;16482;51.046;4.498;2023-04-01T23:26:09;23.90;39.10
29539;DHT22;16482;51.046;4.498;2023-04-01T23:31:02;23.90;39.10
29539;DHT22;16482;51.046;4.498;2023-04-01T23:33:29;23.90;39.10
29539;DHT22;16482;51.046;4.498;2023-04-01T23:36:10;23.90;39.00
29539;DHT22;16482;51.046;4.498;2023-04-01T23:38:40;23.90;38.90
29539;DHT22;16482;51.046;4.498;2023-04-01T23:41:16;23.90;39.00
29539;DHT22;16482;51.046;4.498;2023-04-01T23:44:07;23.90;38.90
29539;DHT22;16482;51.046;4.498;2023-04-01T23:46:35;23.90;38.90
29539;DHT22;16482;51.046;4.498;2023-04-01T23:49:03;23.90;38.90
29539;DHT22;16482;51.046;4.498;2023-04-01T23:51:46;23.90;38.90
29539;DHT22;16482;51.046;4.498;2023-04-01T23:57:26;23.90;38.70
